createdAt,value
2018-06-01T00:00:01.302Z,14.47
2018-06-01T00:02:27.621Z,14.58
2018-06-01T00:04:54.130Z,14.58
2018-06-01T00:07:20.385Z,14.57
2018-06-01T00:09:46.871Z,14.58
2018-06-01T00:12:13.282Z,14.56
2018-06-01T00:14:39.518Z,14.60
2018-06-01T00:17:05.871Z,14.58
2018-06-01T00:19:32.246Z,14.60
2018-06-01T00:21:58.444Z,14.61
2018-06-01T00:24:24.903Z,14.60
2018-06-01T00:26:51.303Z,14.58
2018-06-01T00:29:17.583Z,14.54
2018-06-01T00:31:44.049Z,14.51
2018-06-01T00:34:10.501Z,14.49
2018-06-01T00:36:36.744Z,14.47
2018-06-01T00:39:03.243Z,14.46
2018-06-01T00:41:29.848Z,14.45
2018-06-01T00:43:56.035Z,14.46
2018-06-01T00:46:22.347Z,14.45
2018-06-01T00:48:48.844Z,14.43
2018-06-01T00:51:15.062Z,14.43
2018-06-01T00:53:41.539Z,14.40
2018-06-01T00:56:07.979Z,14.40
2018-06-01T00:58:34.202Z,14.41
2018-06-01T01:01:00.572Z,14.41
2018-06-01T01:03:26.865Z,14.40
2018-06-01T01:05:53.082Z,14.40
2018-06-01T01:08:19.440Z,14.39
2018-06-01T01:10:45.838Z,14.34
2018-06-01T01:13:12.131Z,14.33
2018-06-01T01:15:38.625Z,14.31
2018-06-01T01:18:05.083Z,14.29
2018-06-01T01:20:31.379Z,14.28
2018-06-01T01:22:57.763Z,14.29
2018-06-01T01:25:24.079Z,14.30
2018-06-01T01:27:50.423Z,14.29
2018-06-01T01:30:16.719Z,14.31
2018-06-01T01:32:43.035Z,14.30
2018-06-01T01:35:09.248Z,14.30
2018-06-01T01:37:35.762Z,14.29
2018-06-01T01:40:02.205Z,14.29
2018-06-01T01:42:28.415Z,14.31
2018-06-01T01:44:54.840Z,14.33
2018-06-01T01:47:21.147Z,14.23
2018-06-01T01:49:48.250Z,14.29
2018-06-01T01:52:14.686Z,14.26
2018-06-01T01:54:41.087Z,14.27
2018-06-01T01:57:07.309Z,14.25
2018-06-01T01:59:33.826Z,14.24
2018-06-01T02:02:00.335Z,14.23
2018-06-01T02:04:26.553Z,14.25
2018-06-01T02:06:53.062Z,14.27
2018-06-01T02:09:19.358Z,14.24
2018-06-01T02:11:45.623Z,14.22
2018-06-01T02:14:12.069Z,14.21
2018-06-01T02:16:38.443Z,14.21
2018-06-01T02:19:04.707Z,14.22
2018-06-01T02:21:31.163Z,14.22
2018-06-01T02:23:57.637Z,14.23
2018-06-01T02:26:23.841Z,14.18
2018-06-01T02:28:50.235Z,14.22
2018-06-01T02:31:16.703Z,14.18
2018-06-01T02:33:43.044Z,14.20
2018-06-01T02:36:09.408Z,14.20
2018-06-01T02:38:35.791Z,14.19
2018-06-01T02:41:02.021Z,14.18
2018-06-01T02:43:29.328Z,14.19
2018-06-01T02:45:55.805Z,14.20
2018-06-01T02:48:21.994Z,14.20
2018-06-01T02:50:48.501Z,14.21
2018-06-01T02:53:14.989Z,14.23
2018-06-01T02:55:41.205Z,14.23
2018-06-01T02:58:07.585Z,14.24
2018-06-01T03:00:34.042Z,14.22
2018-06-01T03:03:00.555Z,14.24
2018-06-01T03:05:26.863Z,14.26
2018-06-01T03:07:53.174Z,14.26
2018-06-01T03:10:19.493Z,14.26
2018-06-01T03:12:45.772Z,14.27
2018-06-01T03:15:12.059Z,14.27
2018-06-01T03:17:38.223Z,14.26
2018-06-01T03:20:04.607Z,14.29
2018-06-01T03:22:31.087Z,14.29
2018-06-01T03:24:57.282Z,14.27
2018-06-01T03:27:23.775Z,14.26
2018-06-01T03:29:50.168Z,14.26
2018-06-01T03:32:16.378Z,14.23
2018-06-01T03:34:42.801Z,14.25
2018-06-01T03:37:09.090Z,14.26
2018-06-01T03:39:35.362Z,14.26
2018-06-01T03:42:01.833Z,14.28
2018-06-01T03:44:28.213Z,14.28
2018-06-01T03:46:54.450Z,14.32
2018-06-01T03:49:20.871Z,14.37
2018-06-01T03:51:47.282Z,14.40
2018-06-01T03:54:13.492Z,14.41
2018-06-01T03:56:39.983Z,14.41
2018-06-01T03:59:06.408Z,14.41
2018-06-01T04:01:32.637Z,14.43
2018-06-01T04:03:59.258Z,14.43
2018-06-01T04:06:25.690Z,14.45
2018-06-01T04:08:51.891Z,14.45
2018-06-01T04:11:18.271Z,14.47
2018-06-01T04:13:44.699Z,14.49
2018-06-01T04:16:10.917Z,14.52
2018-06-01T04:18:37.278Z,14.57
2018-06-01T04:21:03.723Z,14.57
2018-06-01T04:23:29.948Z,14.57
2018-06-01T04:25:56.415Z,14.59
2018-06-01T04:28:22.956Z,14.61
2018-06-01T04:30:49.159Z,14.67
2018-06-01T04:33:15.547Z,14.68
2018-06-01T04:35:41.960Z,14.70
2018-06-01T04:38:08.170Z,14.74
2018-06-01T04:40:34.651Z,14.78
2018-06-01T04:43:01.117Z,14.84
2018-06-01T04:45:27.321Z,14.90
2018-06-01T04:47:53.732Z,14.98
2018-06-01T04:50:20.125Z,15.08
2018-06-01T04:52:46.368Z,15.16
2018-06-01T04:55:12.763Z,15.24
2018-06-01T04:57:39.212Z,15.34
2018-06-01T05:00:05.421Z,15.45
2018-06-01T05:02:31.780Z,15.56
2018-06-01T05:04:58.512Z,15.66
2018-06-01T05:07:24.701Z,15.76
2018-06-01T05:09:51.120Z,15.86
2018-06-01T05:12:17.435Z,15.95
2018-06-01T05:14:43.685Z,16.05
2018-06-01T05:17:10.483Z,16.18
2018-06-01T05:19:36.874Z,16.32
2018-06-01T05:22:03.079Z,16.49
2018-06-01T05:24:29.459Z,16.66
2018-06-01T05:26:55.879Z,16.84
2018-06-01T05:29:22.128Z,17.00
2018-06-01T05:31:48.523Z,17.11
2018-06-01T05:34:14.874Z,17.20
2018-06-01T05:36:41.122Z,17.26
2018-06-01T05:39:07.458Z,17.36
2018-06-01T05:41:33.803Z,17.43
2018-06-01T05:44:00.941Z,17.49
2018-06-01T05:46:27.315Z,17.55
2018-06-01T05:48:53.620Z,17.63
2018-06-01T05:51:19.878Z,17.71
2018-06-01T05:53:46.241Z,17.78
2018-06-01T05:56:12.586Z,17.86
2018-06-01T05:58:38.815Z,17.96
2018-06-01T06:01:05.299Z,18.04
2018-06-01T06:03:31.894Z,18.17
2018-06-01T06:05:58.346Z,18.30
2018-06-01T06:08:24.943Z,18.40
2018-06-01T06:10:51.451Z,18.51
2018-06-01T06:13:17.692Z,18.63
2018-06-01T06:15:44.179Z,18.73
2018-06-01T06:18:10.577Z,18.81
2018-06-01T06:20:36.805Z,18.98
2018-06-01T06:23:03.235Z,19.09
2018-06-01T06:25:29.538Z,19.18
2018-06-01T06:27:55.802Z,19.26
2018-06-01T06:30:22.081Z,19.35
2018-06-01T06:32:48.385Z,19.42
2018-06-01T06:35:14.681Z,19.51
2018-06-01T06:37:41.085Z,19.60
2018-06-01T06:40:07.429Z,19.68
2018-06-01T06:42:33.696Z,19.77
2018-06-01T06:45:00.051Z,19.83
2018-06-01T06:47:26.464Z,19.90
2018-06-01T06:49:52.691Z,19.93
2018-06-01T06:52:19.252Z,20.02
2018-06-01T06:54:45.559Z,20.12
2018-06-01T06:57:11.786Z,20.20
2018-06-01T06:59:38.224Z,20.32
2018-06-01T07:02:04.594Z,20.38
2018-06-01T07:04:30.909Z,20.43
2018-06-01T07:06:57.629Z,20.48
2018-06-01T07:09:24.143Z,20.53
2018-06-01T07:11:50.435Z,20.58
2018-06-01T07:14:16.873Z,20.63
2018-06-01T07:16:43.350Z,20.71
2018-06-01T07:19:09.629Z,20.80
2018-06-01T07:21:35.995Z,20.88
2018-06-01T07:24:02.446Z,20.96
2018-06-01T07:26:28.650Z,21.05
2018-06-01T07:28:55.120Z,21.12
2018-06-01T07:31:21.422Z,21.18
2018-06-01T07:33:47.606Z,21.20
2018-06-01T07:36:14.008Z,21.25
2018-06-01T07:38:40.288Z,21.26
2018-06-01T07:41:06.510Z,21.29
2018-06-01T07:43:32.883Z,21.31
2018-06-01T07:45:59.291Z,21.29
2018-06-01T07:48:25.532Z,21.28
2018-06-01T07:50:52.013Z,21.28
2018-06-01T07:53:18.403Z,21.27
2018-06-01T07:55:44.639Z,21.27
2018-06-01T07:58:11.084Z,21.27
2018-06-01T08:00:37.439Z,21.27
2018-06-01T08:03:03.713Z,21.27
2018-06-01T08:05:30.141Z,21.30
2018-06-01T08:07:56.809Z,21.32
2018-06-01T08:10:23.035Z,21.32
2018-06-01T08:12:49.391Z,21.31
2018-06-01T08:15:15.875Z,21.30
2018-06-01T08:17:42.117Z,21.29
2018-06-01T08:20:08.505Z,21.30
2018-06-01T08:22:34.869Z,21.31
2018-06-01T08:25:01.109Z,21.32
2018-06-01T08:27:27.489Z,21.37
2018-06-01T08:29:53.907Z,21.44
2018-06-01T08:32:20.170Z,21.55
2018-06-01T08:34:46.586Z,21.63
2018-06-01T08:37:13.083Z,21.70
2018-06-01T08:39:39.302Z,21.80
2018-06-01T08:42:05.741Z,21.87
2018-06-01T08:44:32.209Z,21.95
2018-06-01T08:46:58.414Z,22.03
2018-06-01T08:49:24.774Z,22.10
2018-06-01T08:51:51.164Z,22.15
2018-06-01T08:54:17.432Z,22.21
2018-06-01T08:56:43.921Z,22.27
2018-06-01T08:59:10.371Z,22.33
2018-06-01T09:01:36.605Z,22.42
2018-06-01T09:04:03.091Z,22.52
2018-06-01T09:06:29.555Z,22.60
2018-06-01T09:08:55.854Z,22.69
2018-06-01T09:11:22.261Z,22.79
2018-06-01T09:13:48.736Z,22.88
2018-06-01T09:16:14.995Z,23.01
2018-06-01T09:18:41.462Z,23.15
2018-06-01T09:21:07.957Z,23.26
2018-06-01T09:23:34.175Z,23.39
2018-06-01T09:26:00.589Z,23.51
2018-06-01T09:31:19.075Z,23.85
2018-06-01T09:33:45.302Z,24.05
2018-06-01T09:36:11.516Z,24.24
2018-06-01T09:38:38.014Z,24.43
2018-06-01T09:41:04.250Z,24.60
2018-06-01T09:43:30.518Z,24.85
2018-06-01T09:45:57.023Z,25.34
2018-06-01T09:48:23.194Z,25.61
2018-06-01T09:50:49.449Z,25.74
2018-06-01T09:53:15.887Z,26.03
2018-06-01T09:55:42.133Z,26.05
2018-06-01T09:58:08.308Z,26.27
2018-06-01T10:00:40.504Z,26.44
2018-06-01T10:03:06.884Z,26.48
2018-06-01T10:05:33.088Z,26.43
2018-06-01T10:07:59.501Z,26.39
2018-06-01T10:10:31.910Z,26.35
2018-06-01T10:12:58.306Z,26.29
2018-06-01T10:15:24.680Z,26.18
2018-06-01T10:17:50.912Z,26.07
2018-06-01T10:20:17.947Z,25.97
2018-06-01T10:22:44.420Z,25.80
2018-06-01T10:25:10.642Z,25.69
2018-06-01T10:27:37.079Z,25.57
2018-06-01T10:30:03.487Z,25.44
2018-06-01T10:32:29.706Z,25.23
2018-06-01T10:34:56.075Z,25.06
2018-06-01T10:37:22.574Z,24.93
2018-06-01T10:39:48.848Z,24.77
2018-06-01T10:42:15.319Z,24.59
2018-06-01T10:44:41.739Z,24.49
2018-06-01T10:47:07.957Z,24.37
2018-06-01T10:49:34.259Z,24.28
2018-06-01T10:52:00.753Z,24.17
2018-06-01T10:54:27.029Z,24.09
2018-06-01T10:56:53.473Z,24.02
2018-06-01T10:59:19.785Z,23.97
2018-06-01T11:01:46.029Z,23.91
2018-06-01T11:04:12.508Z,23.87
2018-06-01T11:06:38.980Z,23.84
2018-06-01T11:09:05.250Z,23.77
2018-06-01T11:11:31.737Z,23.79
2018-06-01T11:13:58.230Z,23.78
2018-06-01T11:16:24.488Z,23.77
2018-06-01T11:18:50.756Z,23.79
2018-06-01T11:21:17.288Z,23.80
2018-06-01T11:23:43.527Z,23.76
2018-06-01T11:26:09.934Z,23.79
2018-06-01T11:28:36.360Z,23.78
2018-06-01T11:31:02.566Z,23.77
2018-06-01T11:33:28.963Z,23.75
2018-06-01T11:35:55.355Z,23.77
2018-06-01T11:38:21.572Z,23.79
2018-06-01T11:40:48.045Z,23.79
2018-06-01T11:43:14.420Z,23.78
2018-06-01T11:45:40.664Z,23.83
2018-06-01T11:48:07.019Z,23.85
2018-06-01T11:50:33.424Z,23.90
2018-06-01T11:52:59.627Z,23.97
2018-06-01T11:55:25.996Z,24.06
2018-06-01T11:57:52.446Z,24.10
2018-06-01T12:00:18.646Z,24.14
2018-06-01T12:02:45.250Z,24.16
2018-06-01T12:05:11.771Z,24.18
2018-06-01T12:07:37.975Z,24.19
2018-06-01T12:10:04.321Z,24.20
2018-06-01T12:12:30.923Z,24.20
2018-06-01T12:14:57.128Z,24.20
2018-06-01T12:17:23.451Z,24.21
2018-06-01T12:19:50.003Z,24.20
2018-06-01T12:22:16.196Z,24.22
2018-06-01T12:24:42.391Z,24.23
2018-06-01T12:27:08.810Z,24.28
2018-06-01T12:29:35.033Z,24.32
2018-06-01T12:32:01.518Z,24.42
2018-06-01T12:34:27.854Z,24.51
2018-06-01T12:36:54.124Z,24.60
2018-06-01T12:39:20.426Z,24.68
2018-06-01T12:41:46.947Z,24.76
2018-06-01T12:44:13.170Z,24.83
2018-06-01T12:46:39.653Z,24.87
2018-06-01T12:49:06.126Z,24.92
2018-06-01T12:51:32.335Z,24.96
2018-06-01T12:53:58.613Z,25.03
2018-06-01T12:56:25.049Z,25.19
2018-06-01T12:58:51.329Z,25.36
2018-06-01T13:01:17.694Z,25.53
2018-06-01T13:03:44.072Z,25.61
2018-06-01T13:06:10.332Z,25.67
2018-06-01T13:08:36.693Z,25.70
2018-06-01T13:11:03.152Z,25.72
2018-06-01T13:13:29.546Z,25.76
2018-06-01T13:15:55.860Z,25.77
2018-06-01T13:18:22.263Z,25.88
2018-06-01T13:20:48.553Z,25.98
2018-06-01T13:23:14.958Z,26.05
2018-06-01T13:25:41.361Z,26.12
2018-06-01T13:28:07.571Z,26.18
2018-06-01T13:30:34.047Z,26.32
2018-06-01T13:33:00.381Z,26.43
2018-06-01T13:35:26.671Z,26.47
2018-06-01T13:37:53.069Z,26.52
2018-06-01T13:40:19.450Z,26.47
2018-06-01T13:42:45.713Z,26.35
2018-06-01T13:45:12.035Z,26.20
2018-06-01T13:47:38.320Z,26.02
2018-06-01T13:50:04.575Z,25.89
2018-06-01T13:52:31.086Z,25.80
2018-06-01T13:54:57.333Z,25.69
2018-06-01T13:57:23.552Z,25.56
2018-06-01T13:59:49.813Z,25.47
2018-06-01T14:02:16.164Z,25.34
2018-06-01T14:04:42.417Z,25.24
2018-06-01T14:07:08.646Z,25.15
2018-06-01T14:09:34.983Z,25.08
2018-06-01T14:12:01.223Z,25.02
2018-06-01T14:14:27.648Z,24.94
2018-06-01T14:16:54.372Z,24.85
2018-06-01T14:19:20.743Z,24.78
2018-06-01T14:21:47.475Z,24.74
2018-06-01T14:24:14.275Z,24.71
2018-06-01T14:26:40.622Z,24.70
2018-06-01T14:29:07.038Z,24.72
2018-06-01T14:31:33.356Z,24.71
2018-06-01T14:33:59.545Z,24.75
2018-06-01T14:36:25.963Z,24.78
2018-06-01T14:38:52.520Z,24.81
2018-06-01T14:41:18.791Z,24.82
2018-06-01T14:43:45.287Z,24.87
2018-06-01T14:46:11.734Z,24.87
2018-06-01T14:48:37.960Z,24.93
2018-06-01T14:51:04.442Z,24.95
2018-06-01T14:53:30.810Z,24.96
2018-06-01T14:55:57.030Z,24.95
2018-06-01T14:58:23.320Z,24.94
2018-06-01T15:00:49.862Z,24.96
2018-06-01T15:03:16.092Z,24.95
2018-06-01T15:05:42.535Z,24.93
2018-06-01T15:08:08.939Z,24.91
2018-06-01T15:10:35.211Z,24.89
2018-06-01T15:13:01.627Z,24.83
2018-06-01T15:15:28.359Z,24.82
2018-06-01T15:17:54.591Z,24.80
2018-06-01T15:20:21.055Z,24.78
2018-06-01T15:22:47.439Z,24.76
2018-06-01T15:25:13.648Z,24.76
2018-06-01T15:27:40.204Z,24.75
2018-06-01T15:30:06.625Z,24.74
2018-06-01T15:32:32.848Z,24.67
2018-06-01T15:34:59.352Z,24.72
2018-06-01T15:37:25.703Z,24.81
2018-06-01T15:39:51.920Z,24.92
2018-06-01T15:42:18.327Z,25.08
2018-06-01T15:44:44.641Z,25.21
2018-06-01T15:47:10.891Z,25.45
2018-06-01T15:49:37.328Z,25.64
2018-06-01T15:52:03.791Z,25.80
2018-06-01T15:54:30.015Z,26.02
2018-06-01T15:56:56.401Z,26.17
2018-06-01T15:59:22.759Z,26.18
2018-06-01T16:01:49.028Z,26.12
2018-06-01T16:04:15.498Z,26.10
2018-06-01T16:06:41.974Z,26.10
2018-06-01T16:09:08.197Z,26.08
2018-06-01T16:11:34.662Z,26.02
2018-06-01T16:14:01.066Z,25.97
2018-06-01T16:16:27.510Z,25.95
2018-06-01T16:18:53.893Z,25.89
2018-06-01T16:21:20.285Z,25.79
2018-06-01T16:23:46.511Z,25.64
2018-06-01T16:26:12.759Z,25.42
2018-06-01T16:28:39.187Z,25.20
2018-06-01T16:31:06.366Z,25.05
2018-06-01T16:33:32.773Z,24.90
2018-06-01T16:35:59.147Z,24.77
2018-06-01T16:38:25.362Z,24.62
2018-06-01T16:40:51.677Z,24.49
2018-06-01T16:43:18.038Z,24.41
2018-06-01T16:45:44.269Z,24.35
2018-06-01T16:48:10.666Z,24.27
2018-06-01T16:50:37.009Z,24.24
2018-06-01T16:53:03.269Z,24.14
2018-06-01T16:55:29.656Z,24.10
2018-06-01T16:57:56.046Z,24.05
2018-06-01T17:00:22.262Z,24.00
2018-06-01T17:02:48.804Z,23.92
2018-06-01T17:05:15.162Z,23.84
2018-06-01T17:07:41.378Z,23.69
2018-06-01T17:10:07.840Z,23.54
2018-06-01T17:12:34.239Z,23.45
2018-06-01T17:15:00.471Z,23.44
2018-06-01T17:17:26.870Z,23.49
2018-06-01T17:19:53.297Z,23.50
2018-06-01T17:22:19.548Z,23.48
2018-06-01T17:24:46.148Z,23.41
2018-06-01T17:27:12.542Z,23.35
2018-06-01T17:29:38.757Z,23.32
2018-06-01T17:32:08.062Z,23.32
2018-06-01T17:34:34.350Z,23.35
2018-06-01T17:37:00.546Z,23.38
2018-06-01T17:39:26.890Z,23.42
2018-06-01T17:41:53.256Z,23.41
2018-06-01T17:44:19.568Z,23.42
2018-06-01T17:46:45.935Z,23.42
2018-06-01T17:49:12.390Z,23.47
2018-06-01T17:51:38.578Z,23.49
2018-06-01T17:54:05.166Z,23.50
2018-06-01T17:56:31.466Z,23.50
2018-06-01T17:58:57.683Z,23.52
2018-06-01T18:01:24.014Z,23.51
2018-06-01T18:03:50.332Z,23.51
2018-06-01T18:06:16.543Z,23.50
2018-06-01T18:08:42.955Z,23.52
2018-06-01T18:11:09.379Z,23.52
2018-06-01T18:13:35.565Z,23.50
2018-06-01T18:16:02.164Z,23.51
2018-06-01T18:18:28.838Z,23.49
2018-06-01T18:20:55.058Z,23.45
2018-06-01T18:23:21.424Z,23.40
2018-06-01T18:25:47.773Z,23.40
2018-06-01T18:28:14.067Z,23.42
2018-06-01T18:30:40.424Z,23.39
2018-06-01T18:33:06.779Z,23.33
2018-06-01T18:35:32.997Z,23.34
2018-06-01T18:37:59.358Z,23.33
2018-06-01T18:40:25.755Z,23.31
2018-06-01T18:42:51.991Z,23.29
2018-06-01T18:45:18.386Z,23.27
2018-06-01T18:47:44.735Z,23.30
2018-06-01T18:50:10.925Z,23.29
2018-06-01T18:52:37.255Z,23.26
2018-06-01T18:55:03.719Z,23.25
2018-06-01T18:57:29.923Z,23.25
2018-06-01T18:59:56.290Z,23.25
2018-06-01T19:02:22.787Z,23.26
2018-06-01T19:04:48.971Z,23.25
2018-06-01T19:07:15.407Z,23.23
2018-06-01T19:09:41.763Z,23.22
2018-06-01T19:12:07.973Z,23.19
2018-06-01T19:14:34.387Z,23.13
2018-06-01T19:17:00.684Z,23.09
2018-06-01T19:19:27.098Z,23.11
2018-06-01T19:21:53.424Z,23.08
2018-06-01T19:24:19.993Z,23.02
2018-06-01T19:26:46.194Z,23.00
2018-06-01T19:29:12.533Z,22.97
2018-06-01T19:31:38.933Z,22.94
2018-06-01T19:34:05.150Z,22.91
2018-06-01T19:36:31.532Z,22.88
2018-06-01T19:38:57.926Z,22.85
2018-06-01T19:41:24.161Z,22.83
2018-06-01T19:43:50.534Z,22.78
2018-06-01T19:46:16.911Z,22.75
2018-06-01T19:48:43.192Z,22.75
2018-06-01T19:51:09.479Z,22.73
2018-06-01T19:53:35.844Z,22.70
2018-06-01T19:56:02.056Z,22.68
2018-06-01T19:58:28.543Z,22.65
2018-06-01T20:00:55.021Z,22.61
2018-06-01T20:03:21.231Z,22.55
2018-06-01T20:05:47.682Z,22.49
2018-06-01T20:08:14.164Z,22.42
2018-06-01T20:10:40.393Z,22.36
2018-06-01T20:13:06.823Z,22.29
2018-06-01T20:15:33.246Z,22.21
2018-06-01T20:17:59.497Z,22.14
2018-06-01T20:20:26.110Z,22.06
2018-06-01T20:22:52.465Z,21.98
2018-06-01T20:25:18.710Z,21.91
2018-06-01T20:27:45.141Z,21.83
2018-06-01T20:30:11.454Z,21.76
2018-06-01T20:32:37.707Z,21.68
2018-06-01T20:35:04.169Z,21.62
2018-06-01T20:37:30.781Z,21.52
2018-06-01T20:39:56.979Z,21.44
2018-06-01T20:42:23.341Z,21.37
2018-06-01T20:44:49.754Z,21.30
2018-06-01T20:47:16.012Z,21.22
2018-06-01T20:49:42.352Z,21.15
2018-06-01T20:52:08.750Z,21.07
2018-06-01T20:54:34.972Z,20.99
2018-06-01T20:57:01.431Z,20.93
2018-06-01T20:59:27.762Z,20.85
2018-06-01T21:01:53.981Z,20.78
2018-06-01T21:04:20.497Z,20.70
2018-06-01T21:06:46.913Z,20.62
2018-06-01T21:09:13.146Z,20.54
2018-06-01T21:11:39.577Z,20.46
2018-06-01T21:14:06.050Z,20.39
2018-06-01T21:16:32.317Z,20.31
2018-06-01T21:18:58.944Z,20.24
2018-06-01T21:21:25.357Z,20.17
2018-06-01T21:23:51.573Z,20.10
2018-06-01T21:26:17.883Z,20.03
2018-06-01T21:28:44.393Z,20.00
2018-06-01T21:31:10.610Z,19.94
2018-06-01T21:33:36.937Z,19.89
2018-06-01T21:36:03.374Z,19.83
2018-06-01T21:38:29.604Z,19.76
2018-06-01T21:40:55.948Z,19.71
2018-06-01T21:43:22.306Z,19.65
2018-06-01T21:45:48.623Z,19.60
2018-06-01T21:48:14.975Z,19.54
2018-06-01T21:50:41.305Z,19.47
2018-06-01T21:53:07.564Z,19.42
2018-06-01T21:55:34.195Z,19.36
2018-06-01T21:58:00.614Z,19.31
2018-06-01T22:00:26.834Z,19.26
2018-06-01T22:02:53.143Z,19.22
2018-06-01T22:05:19.527Z,19.17
2018-06-01T22:07:45.779Z,19.14
2018-06-01T22:10:12.034Z,19.10
2018-06-01T22:12:38.348Z,19.02
2018-06-01T22:15:04.550Z,19.01
2018-06-01T22:17:30.985Z,18.94
2018-06-01T22:19:57.380Z,18.87
2018-06-01T22:22:23.571Z,18.84
2018-06-01T22:24:50.020Z,18.77
2018-06-01T22:27:16.432Z,18.69
2018-06-01T22:29:42.707Z,18.70
2018-06-01T22:32:09.095Z,18.63
2018-06-01T22:34:35.542Z,18.61
2018-06-01T22:37:01.834Z,18.58
2018-06-01T22:39:28.115Z,18.52
2018-06-01T22:41:54.498Z,18.47
2018-06-01T22:44:20.709Z,18.43
2018-06-01T22:46:46.999Z,18.39
2018-06-01T22:49:13.455Z,18.36
2018-06-01T22:51:39.679Z,18.33
2018-06-01T22:54:06.082Z,18.28
2018-06-01T22:56:32.555Z,18.22
2018-06-01T22:58:58.767Z,18.16
2018-06-01T23:01:25.246Z,18.11
2018-06-01T23:03:51.690Z,18.06
2018-06-01T23:06:17.917Z,18.01
2018-06-01T23:08:44.307Z,17.96
2018-06-01T23:11:10.673Z,17.92
2018-06-01T23:13:36.905Z,17.89
2018-06-01T23:16:03.423Z,17.83
2018-06-01T23:18:29.825Z,17.79
2018-06-01T23:20:56.148Z,17.73
2018-06-01T23:23:22.549Z,17.72
2018-06-01T23:25:49.071Z,17.68
2018-06-01T23:28:15.280Z,17.64
2018-06-01T23:30:41.800Z,17.60
2018-06-01T23:33:08.231Z,17.56
2018-06-01T23:35:34.444Z,17.52
2018-06-01T23:38:00.839Z,17.49
2018-06-01T23:40:27.215Z,17.46
2018-06-01T23:42:53.433Z,17.44
2018-06-01T23:45:20.039Z,17.39
2018-06-01T23:47:46.428Z,17.34
2018-06-01T23:50:12.646Z,17.31
2018-06-01T23:52:39.025Z,17.28
2018-06-01T23:55:05.372Z,17.24
2018-06-01T23:57:31.573Z,17.21
2018-06-01T23:59:57.947Z,17.17
